createdAt,value
2019-01-11T00:02:42.794Z,10.70
2019-01-11T00:07:46.832Z,5.90
2019-01-11T00:12:50.868Z,5.03
2019-01-11T00:17:54.931Z,3.15
2019-01-11T00:22:59.579Z,2.67
2019-01-11T00:28:03.880Z,2.05
2019-01-11T00:33:07.909Z,1.30
2019-01-11T00:38:11.861Z,0.98
2019-01-11T00:43:15.926Z,2.20
2019-01-11T00:48:20.257Z,6.95
2019-01-11T00:53:24.387Z,0.70
2019-01-11T00:58:28.197Z,0.30
2019-01-11T01:03:32.369Z,2.60
2019-01-11T01:08:36.618Z,7.00
2019-01-11T01:13:40.567Z,2.10
2019-01-11T01:18:44.581Z,1.92
2019-01-11T01:23:51.046Z,2.20
2019-01-11T01:28:55.109Z,1.87
2019-01-11T01:33:59.036Z,2.42
2019-01-11T01:39:05.996Z,2.62
2019-01-11T01:44:10.021Z,2.55
2019-01-11T01:49:14.132Z,2.15
2019-01-11T01:54:18.839Z,9.35
2019-01-11T01:59:22.822Z,2.20
2019-01-11T02:04:26.777Z,3.35
2019-01-11T02:09:30.721Z,1.25
2019-01-11T02:14:34.643Z,0.53
2019-01-11T02:19:38.725Z,3.40
2019-01-11T02:24:45.012Z,0.60
2019-01-11T02:29:48.936Z,0.17
2019-01-11T02:34:52.924Z,0.10
2019-01-11T02:39:56.848Z,0.75
2019-01-11T02:45:00.774Z,0.25
2019-01-11T02:50:05.686Z,0.75
2019-01-11T02:55:09.711Z,0.82
2019-01-11T03:00:18.852Z,0.60
2019-01-11T03:05:25.416Z,0.10
2019-01-11T03:10:29.516Z,1.27
2019-01-11T03:15:33.514Z,4.47
2019-01-11T03:20:37.711Z,0.28
2019-01-11T03:25:44.075Z,0.20
2019-01-11T03:30:48.083Z,0.33
2019-01-11T03:35:51.964Z,0.25
2019-01-11T03:40:55.981Z,0.40
2019-01-11T03:45:59.884Z,0.82
2019-01-11T03:51:04.119Z,0.70
2019-01-11T03:56:08.145Z,0.72
2019-01-11T04:01:12.128Z,0.50
2019-01-11T04:06:18.405Z,0.15
2019-01-11T04:11:22.904Z,1.25
2019-01-11T04:16:28.958Z,1.15
2019-01-11T04:21:33.244Z,1.30
2019-01-11T04:26:39.385Z,0.40
2019-01-11T04:31:43.424Z,1.17
2019-01-11T04:36:47.250Z,0.78
2019-01-11T04:41:51.213Z,3.72
2019-01-11T04:46:55.175Z,2.85
2019-01-11T04:51:59.363Z,0.78
2019-01-11T04:57:03.872Z,0.65
2019-01-11T05:02:08.109Z,0.33
2019-01-11T05:07:12.261Z,0.55
2019-01-11T05:12:16.628Z,0.42
2019-01-11T05:17:20.538Z,1.30
2019-01-11T05:22:26.180Z,1.32
2019-01-11T05:27:34.348Z,2.52
2019-01-11T05:32:38.524Z,0.62
2019-01-11T05:37:42.442Z,1.02
2019-01-11T05:42:46.569Z,0.20
2019-01-11T05:47:50.478Z,0.45
2019-01-11T05:52:54.618Z,0.90
2019-01-11T05:58:27.733Z,0.10
2019-01-11T06:03:31.697Z,0.25
2019-01-11T06:08:36.522Z,0.42
2019-01-11T06:13:40.474Z,0.75
2019-01-11T06:18:44.517Z,0.20
2019-01-11T06:23:48.533Z,0.88
2019-01-11T06:28:53.085Z,1.17
2019-01-11T06:33:57.157Z,2.92
2019-01-11T06:39:01.045Z,0.42
2019-01-11T06:44:05.021Z,0.42
2019-01-11T06:49:12.096Z,1.90
2019-01-11T06:54:16.065Z,0.70
2019-01-11T06:59:20.093Z,0.45
2019-01-11T07:04:24.181Z,0.45
2019-01-11T07:09:31.376Z,0.82
2019-01-11T07:14:36.169Z,3.42
2019-01-11T07:19:40.044Z,1.60
2019-01-11T07:24:45.040Z,0.47
2019-01-11T07:29:49.372Z,1.22
2019-01-11T07:34:53.631Z,0.47
2019-01-11T07:39:58.446Z,1.07
2019-01-11T07:45:03.382Z,8.15
2019-01-11T07:50:08.082Z,1.95
2019-01-11T07:55:12.301Z,0.25
2019-01-11T08:00:17.526Z,17.98
2019-01-11T08:05:21.627Z,16.00
2019-01-11T08:10:25.986Z,16.17
2019-01-11T08:15:31.971Z,22.10
2019-01-11T08:20:36.224Z,96.87
2019-01-11T08:25:41.112Z,113.57
2019-01-11T08:30:46.296Z,115.25
2019-01-11T08:35:50.711Z,115.75
2019-01-11T08:40:54.652Z,52.30
2019-01-11T08:45:59.160Z,55.15
2019-01-11T08:51:03.934Z,43.38
2019-01-11T08:56:08.829Z,50.25
2019-01-11T09:01:13.139Z,53.73
2019-01-11T09:06:18.757Z,57.70
2019-01-11T09:11:22.720Z,52.17
2019-01-11T09:16:26.873Z,50.45
2019-01-11T09:21:30.871Z,58.65
2019-01-11T09:26:34.980Z,51.75
2019-01-11T09:31:41.527Z,93.97
2019-01-11T09:36:45.758Z,164.05
2019-01-11T09:41:49.848Z,119.47
2019-01-11T09:46:54.108Z,51.05
2019-01-11T09:51:58.194Z,61.23
2019-01-11T09:57:02.571Z,57.50
2019-01-11T10:02:25.214Z,46.40
2019-01-11T10:07:30.375Z,87.97
2019-01-11T10:12:34.604Z,55.58
2019-01-11T10:17:38.792Z,66.25
2019-01-11T10:22:43.244Z,59.50
2019-01-11T10:27:47.228Z,54.05
2019-01-11T10:32:51.976Z,63.63
2019-01-11T10:37:56.068Z,53.42
2019-01-11T10:43:00.229Z,45.98
2019-01-11T10:48:05.054Z,51.08
2019-01-11T10:53:09.723Z,58.73
2019-01-11T10:58:14.146Z,48.30
2019-01-11T11:03:18.101Z,47.65
2019-01-11T11:08:22.102Z,53.73
2019-01-11T11:13:26.138Z,59.63
2019-01-11T11:18:30.676Z,44.40
2019-01-11T11:23:35.464Z,47.67
2019-01-11T11:28:39.825Z,43.25
2019-01-11T11:33:45.854Z,39.67
2019-01-11T11:38:50.285Z,36.38
2019-01-11T11:43:54.782Z,45.05
2019-01-11T11:48:59.144Z,48.92
2019-01-11T11:54:03.327Z,48.58
2019-01-11T11:59:07.623Z,54.58
2019-01-11T12:04:12.115Z,171.15
2019-01-11T12:09:16.045Z,57.83
2019-01-11T12:14:20.304Z,55.67
2019-01-11T12:19:24.270Z,58.30
2019-01-11T12:24:28.305Z,54.30
2019-01-11T12:29:32.524Z,58.85
2019-01-11T12:34:38.483Z,51.33
2019-01-11T12:39:42.827Z,45.20
2019-01-11T12:44:47.032Z,49.38
2019-01-11T12:49:51.090Z,73.05
2019-01-11T12:54:56.326Z,50.75
2019-01-11T13:00:00.653Z,45.23
2019-01-11T13:05:06.472Z,39.38
2019-01-11T13:10:12.449Z,46.00
2019-01-11T13:15:18.830Z,54.98
2019-01-11T13:20:23.521Z,46.23
2019-01-11T13:25:32.066Z,50.98
2019-01-11T13:30:33.719Z,54.88
2019-01-11T13:35:38.761Z,62.60
2019-01-11T13:40:43.544Z,57.48
2019-01-11T13:45:47.924Z,99.50
2019-01-11T13:50:52.228Z,67.75
2019-01-11T13:55:56.296Z,76.47
2019-01-11T14:01:00.580Z,57.17
2019-01-11T14:06:04.700Z,51.68
2019-01-11T14:11:09.443Z,48.10
2019-01-11T14:16:13.826Z,59.25
2019-01-11T14:21:17.802Z,58.60
2019-01-11T14:26:21.821Z,68.45
2019-01-11T14:31:25.993Z,67.03
2019-01-11T14:36:30.657Z,84.55
2019-01-11T14:41:35.766Z,329.10
2019-01-11T14:46:39.778Z,295.40
2019-01-11T14:51:43.953Z,227.70
2019-01-11T14:56:47.878Z,216.35
2019-01-11T15:01:52.480Z,180.40
2019-01-11T15:06:57.120Z,203.05
2019-01-11T15:12:01.416Z,192.07
2019-01-11T15:17:05.365Z,147.35
2019-01-11T15:22:09.578Z,161.30
2019-01-11T15:27:13.565Z,160.93
2019-01-11T15:32:17.718Z,278.25
2019-01-11T15:37:22.908Z,106.85
2019-01-11T15:42:26.863Z,259.07
2019-01-11T15:47:30.829Z,202.07
2019-01-11T15:52:35.076Z,121.22
2019-01-11T15:57:42.757Z,194.97
2019-01-11T16:02:47.090Z,163.40
2019-01-11T16:07:51.071Z,178.80
2019-01-11T16:13:10.904Z,106.00
2019-01-11T16:18:22.372Z,109.12
2019-01-11T16:23:26.292Z,192.85
2019-01-11T16:28:30.675Z,129.50
2019-01-11T16:33:34.670Z,76.47
2019-01-11T16:38:39.648Z,71.20
2019-01-11T16:43:43.905Z,117.93
2019-01-11T16:48:47.991Z,210.82
2019-01-11T16:53:52.321Z,64.97
2019-01-11T16:58:56.413Z,143.90
2019-01-11T17:04:00.636Z,237.17
2019-01-11T17:09:07.415Z,231.60
2019-01-11T17:14:11.617Z,883.60
2019-01-11T17:19:15.572Z,226.22
2019-01-11T17:24:19.879Z,119.67
2019-01-11T17:29:23.913Z,126.60
2019-01-11T17:34:28.204Z,105.77
2019-01-11T17:39:33.375Z,151.75
2019-01-11T17:44:37.594Z,67.65
2019-01-11T17:49:41.711Z,54.90
2019-01-11T17:54:45.718Z,36.98
2019-01-11T17:59:49.705Z,31.73
2019-01-11T18:04:55.321Z,36.93
2019-01-11T18:10:01.264Z,36.73
2019-01-11T18:15:19.150Z,27.32
2019-01-11T18:20:26.794Z,18.17
2019-01-11T18:25:32.057Z,21.25
2019-01-11T18:30:36.359Z,22.48
2019-01-11T18:35:40.446Z,21.25
2019-01-11T18:40:44.821Z,20.48
2019-01-11T18:45:49.086Z,17.27
2019-01-11T18:50:53.266Z,22.77
2019-01-11T18:56:07.827Z,21.65
2019-01-11T19:01:19.472Z,24.05
2019-01-11T19:06:26.062Z,20.32
2019-01-11T19:11:30.526Z,28.10
2019-01-11T19:16:35.081Z,23.98
2019-01-11T19:21:39.418Z,21.70
2019-01-11T19:26:43.626Z,20.08
2019-01-11T19:31:48.152Z,23.05
2019-01-11T19:36:52.499Z,21.73
2019-01-11T19:41:57.178Z,23.45
2019-01-11T19:47:01.546Z,26.70
2019-01-11T19:52:05.824Z,24.47
2019-01-11T19:57:09.990Z,28.70
2019-01-11T20:02:15.242Z,23.50
2019-01-11T20:07:19.567Z,19.27
2019-01-11T20:12:23.976Z,22.90
2019-01-11T20:17:29.366Z,23.38
2019-01-11T20:22:33.994Z,25.23
2019-01-11T20:27:38.001Z,20.25
2019-01-11T20:32:42.375Z,20.82
2019-01-11T20:37:46.763Z,22.57
2019-01-11T20:42:51.854Z,33.10
2019-01-11T20:47:55.929Z,31.00
2019-01-11T20:53:00.127Z,33.47
2019-01-11T20:58:04.331Z,30.60
2019-01-11T21:03:08.439Z,24.32
2019-01-11T21:08:14.739Z,29.52
2019-01-11T21:13:18.829Z,27.93
2019-01-11T21:18:23.070Z,23.30
2019-01-11T21:23:27.323Z,20.97
2019-01-11T21:28:31.493Z,28.87
2019-01-11T21:33:35.531Z,29.85
2019-01-11T21:38:39.639Z,28.65
2019-01-11T21:43:43.924Z,27.58
2019-01-11T21:48:47.995Z,25.90
2019-01-11T21:53:55.718Z,28.67
2019-01-11T21:58:58.013Z,22.90
2019-01-11T22:04:02.015Z,25.90
2019-01-11T22:09:07.788Z,22.50
2019-01-11T22:14:11.980Z,23.52
2019-01-11T22:19:34.130Z,23.62
2019-01-11T22:24:38.369Z,22.17
2019-01-11T22:29:42.362Z,23.42
2019-01-11T22:34:46.349Z,22.67
2019-01-11T22:39:50.385Z,17.73
2019-01-11T22:44:54.706Z,19.92
2019-01-11T22:49:58.919Z,16.45
2019-01-11T22:55:03.621Z,23.75
2019-01-11T23:00:46.380Z,21.02
2019-01-11T23:05:53.315Z,20.83
2019-01-11T23:11:33.455Z,22.48
2019-01-11T23:17:12.258Z,18.30
2019-01-11T23:22:16.436Z,23.57
2019-01-11T23:27:20.477Z,19.93
2019-01-11T23:32:24.565Z,17.12
2019-01-11T23:37:28.585Z,19.23
2019-01-11T23:42:32.688Z,22.27
2019-01-11T23:47:37.298Z,19.55
2019-01-11T23:52:41.494Z,18.40
2019-01-11T23:57:45.410Z,17.27
